sensor_id;sensor_type;location;lat;lon;timestamp;pressure;altitude;pressure_sealevel;temperature;humidity
13029;BME280;6581;42.662;23.402;2023-04-10T00:01:55;95470.84;;;8.09;92.75
13029;BME280;6581;42.662;23.402;2023-04-10T00:04:22;95465.56;;;8.09;91.02
13029;BME280;6581;42.662;23.402;2023-04-10T00:06:49;95467.59;;;7.99;88.95
13029;BME280;6581;42.662;23.402;2023-04-10T00:09:16;95461.84;;;8.10;86.01
13029;BME280;6581;42.662;23.402;2023-04-10T00:12:09;95462.03;;;8.17;82.45
13029;BME280;6581;42.662;23.402;2023-04-10T00:14:37;95463.47;;;8.14;80.28
13029;BME280;6581;42.662;23.402;2023-04-10T00:17:31;95463.47;;;8.14;78.91
13029;BME280;6581;42.662;23.402;2023-04-10T00:19:58;95459.81;;;8.19;76.04
13029;BME280;6581;42.662;23.402;2023-04-10T00:22:25;95464.78;;;8.20;75.31
13029;BME280;6581;42.662;23.402;2023-04-10T00:24:52;95465.88;;;8.19;73.19
13029;BME280;6581;42.662;23.402;2023-04-10T00:27:19;95464.25;;;8.15;71.28
13029;BME280;6581;42.662;23.402;2023-04-10T00:29:48;95457.59;;;8.21;70.03
13029;BME280;6581;42.662;23.402;2023-04-10T00:32:15;95454.31;;;8.24;69.08
13029;BME280;6581;42.662;23.402;2023-04-10T00:34:42;95461.44;;;8.23;68.41
13029;BME280;6581;42.662;23.402;2023-04-10T00:37:09;95452.31;;;8.21;68.81
13029;BME280;6581;42.662;23.402;2023-04-10T00:39:36;95455.31;;;8.19;69.39
13029;BME280;6581;42.662;23.402;2023-04-10T00:42:03;95448.28;;;8.11;70.42
13029;BME280;6581;42.662;23.402;2023-04-10T00:44:34;95448.50;;;8.18;70.28
13029;BME280;6581;42.662;23.402;2023-04-10T00:47:03;95448.00;;;8.28;70.66
13029;BME280;6581;42.662;23.402;2023-04-10T00:49:31;95455.84;;;8.25;70.14
13029;BME280;6581;42.662;23.402;2023-04-10T00:51:59;95452.53;;;8.28;69.83
13029;BME280;6581;42.662;23.402;2023-04-10T00:54:26;95445.09;;;8.18;70.14
13029;BME280;6581;42.662;23.402;2023-04-10T00:56:54;95449.03;;;8.24;70.95
13029;BME280;6581;42.662;23.402;2023-04-10T00:59:21;95442.91;;;8.20;73.13
13029;BME280;6581;42.662;23.402;2023-04-10T01:01:48;95434.16;;;8.03;77.78
13029;BME280;6581;42.662;23.402;2023-04-10T01:04:17;95432.81;;;8.10;81.40
13029;BME280;6581;42.662;23.402;2023-04-10T01:06:52;95421.50;;;8.09;83.50
13029;BME280;6581;42.662;23.402;2023-04-10T01:09:34;95421.50;;;8.09;85.95
13029;BME280;6581;42.662;23.402;2023-04-10T01:12:14;95414.50;;;8.01;88.21
13029;BME280;6581;42.662;23.402;2023-04-10T01:14:49;95420.78;;;7.96;90.02
13029;BME280;6581;42.662;23.402;2023-04-10T01:17:21;95418.41;;;7.91;91.60
13029;BME280;6581;42.662;23.402;2023-04-10T01:20:02;95414.22;;;7.90;92.43
13029;BME280;6581;42.662;23.402;2023-04-10T01:22:34;95416.16;;;7.93;93.06
13029;BME280;6581;42.662;23.402;2023-04-10T01:25:33;95421.22;;;7.98;94.17
13029;BME280;6581;42.662;23.402;2023-04-10T01:28:14;95416.94;;;7.94;95.90
13029;BME280;6581;42.662;23.402;2023-04-10T01:30:51;95410.09;;;8.05;96.23
13029;BME280;6581;42.662;23.402;2023-04-10T01:33:21;95415.13;;;8.10;96.53
13029;BME280;6581;42.662;23.402;2023-04-10T01:36:21;95411.72;;;8.10;96.22
13029;BME280;6581;42.662;23.402;2023-04-10T01:38:49;95413.44;;;8.18;94.91
13029;BME280;6581;42.662;23.402;2023-04-10T01:41:18;95409.00;;;8.22;93.32
13029;BME280;6581;42.662;23.402;2023-04-10T01:43:47;95410.94;;;8.09;94.00
13029;BME280;6581;42.662;23.402;2023-04-10T01:46:16;95415.66;;;8.16;91.30
13029;BME280;6581;42.662;23.402;2023-04-10T01:48:46;95420.47;;;8.14;89.17
13029;BME280;6581;42.662;23.402;2023-04-10T01:51:14;95414.13;;;8.15;91.31
13029;BME280;6581;42.662;23.402;2023-04-10T01:54:09;95421.09;;;8.23;92.12
13029;BME280;6581;42.662;23.402;2023-04-10T01:56:37;95420.31;;;8.22;87.75
13029;BME280;6581;42.662;23.402;2023-04-10T01:59:04;95410.47;;;8.19;84.72
13029;BME280;6581;42.662;23.402;2023-04-10T02:01:33;95424.75;;;8.18;82.44
13029;BME280;6581;42.662;23.402;2023-04-10T02:04:01;95417.69;;;8.22;82.78
13029;BME280;6581;42.662;23.402;2023-04-10T02:06:36;95419.19;;;8.08;82.92
13029;BME280;6581;42.662;23.402;2023-04-10T02:09:13;95414.44;;;8.13;85.74
13029;BME280;6581;42.662;23.402;2023-04-10T02:11:46;95416.50;;;8.20;86.87
13029;BME280;6581;42.662;23.402;2023-04-10T02:14:16;95402.53;;;8.19;85.08
13029;BME280;6581;42.662;23.402;2023-04-10T02:16:45;95402.94;;;8.33;80.71
13029;BME280;6581;42.662;23.402;2023-04-10T02:19:13;95396.31;;;8.27;80.54
13029;BME280;6581;42.662;23.402;2023-04-10T02:21:43;95399.75;;;8.28;82.19
13029;BME280;6581;42.662;23.402;2023-04-10T02:24:10;95399.75;;;8.28;81.75
13029;BME280;6581;42.662;23.402;2023-04-10T02:26:45;95395.78;;;8.34;82.99
13029;BME280;6581;42.662;23.402;2023-04-10T02:29:12;95390.59;;;8.37;82.58
13029;BME280;6581;42.662;23.402;2023-04-10T02:31:40;95394.41;;;8.40;79.49
13029;BME280;6581;42.662;23.402;2023-04-10T02:34:08;95391.25;;;8.34;79.63
13029;BME280;6581;42.662;23.402;2023-04-10T02:36:37;95388.19;;;8.32;78.83
13029;BME280;6581;42.662;23.402;2023-04-10T02:39:05;95379.00;;;8.42;78.38
13029;BME280;6581;42.662;23.402;2023-04-10T02:41:34;95389.13;;;8.40;78.41
13029;BME280;6581;42.662;23.402;2023-04-10T02:44:03;95377.13;;;8.42;78.15
13029;BME280;6581;42.662;23.402;2023-04-10T02:46:31;95373.13;;;8.33;79.81
13029;BME280;6581;42.662;23.402;2023-04-10T02:48:59;95364.91;;;8.22;81.07
13029;BME280;6581;42.662;23.402;2023-04-10T02:51:28;95367.03;;;8.17;82.08
13029;BME280;6581;42.662;23.402;2023-04-10T02:53:57;95364.63;;;8.12;82.04
13029;BME280;6581;42.662;23.402;2023-04-10T02:56:28;95366.38;;;8.20;81.89
13029;BME280;6581;42.662;23.402;2023-04-10T02:58:55;95369.25;;;8.15;82.12
13029;BME280;6581;42.662;23.402;2023-04-10T03:01:23;95371.44;;;8.13;81.99
13029;BME280;6581;42.662;23.402;2023-04-10T03:03:50;95356.38;;;8.13;82.92
13029;BME280;6581;42.662;23.402;2023-04-10T03:06:25;95370.53;;;8.05;81.23
13029;BME280;6581;42.662;23.402;2023-04-10T03:08:55;95369.66;;;8.01;81.39
13029;BME280;6581;42.662;23.402;2023-04-10T03:11:23;95366.31;;;7.88;81.00
13029;BME280;6581;42.662;23.402;2023-04-10T03:14:14;95370.22;;;7.79;82.58
13029;BME280;6581;42.662;23.402;2023-04-10T03:16:41;95360.69;;;7.74;81.99
13029;BME280;6581;42.662;23.402;2023-04-10T03:19:08;95375.75;;;7.62;81.61
13029;BME280;6581;42.662;23.402;2023-04-10T03:21:37;95368.47;;;7.43;83.21
13029;BME280;6581;42.662;23.402;2023-04-10T03:24:05;95372.63;;;7.44;84.38
13029;BME280;6581;42.662;23.402;2023-04-10T03:26:33;95365.09;;;7.42;84.12
13029;BME280;6581;42.662;23.402;2023-04-10T03:29:00;95362.53;;;7.46;83.00
13029;BME280;6581;42.662;23.402;2023-04-10T03:31:27;95369.69;;;7.45;82.68
13029;BME280;6581;42.662;23.402;2023-04-10T03:33:57;95373.00;;;7.42;84.05
13029;BME280;6581;42.662;23.402;2023-04-10T03:36:24;95377.06;;;7.40;84.80
13029;BME280;6581;42.662;23.402;2023-04-10T03:38:53;95373.56;;;7.36;84.79
13029;BME280;6581;42.662;23.402;2023-04-10T03:41:21;95382.66;;;7.38;83.85
13029;BME280;6581;42.662;23.402;2023-04-10T03:43:50;95380.78;;;7.39;83.57
13029;BME280;6581;42.662;23.402;2023-04-10T03:46:18;95377.28;;;7.35;84.23
13029;BME280;6581;42.662;23.402;2023-04-10T03:48:45;95377.50;;;7.30;85.54
13029;BME280;6581;42.662;23.402;2023-04-10T03:51:12;95376.34;;;7.15;87.42
13029;BME280;6581;42.662;23.402;2023-04-10T03:53:39;95383.81;;;7.13;87.61
13029;BME280;6581;42.662;23.402;2023-04-10T03:56:11;95384.38;;;7.06;89.47
13029;BME280;6581;42.662;23.402;2023-04-10T03:58:39;95385.50;;;7.05;90.90
13029;BME280;6581;42.662;23.402;2023-04-10T04:01:07;95385.34;;;7.14;90.65
13029;BME280;6581;42.662;23.402;2023-04-10T04:03:51;95396.66;;;7.15;90.27
13029;BME280;6581;42.662;23.402;2023-04-10T04:06:47;95396.09;;;7.21;89.61
13029;BME280;6581;42.662;23.402;2023-04-10T04:09:23;95394.53;;;7.20;89.47
13029;BME280;6581;42.662;23.402;2023-04-10T04:12:13;95403.00;;;7.26;89.61
13029;BME280;6581;42.662;23.402;2023-04-10T04:15:00;95402.78;;;7.31;90.25
13029;BME280;6581;42.662;23.402;2023-04-10T04:17:52;95403.41;;;7.40;89.84
13029;BME280;6581;42.662;23.402;2023-04-10T04:20:39;95397.91;;;7.45;89.86
13029;BME280;6581;42.662;23.402;2023-04-10T04:23:29;95397.13;;;7.44;90.72
13029;BME280;6581;42.662;23.402;2023-04-10T04:26:06;95395.19;;;7.41;92.31
13029;BME280;6581;42.662;23.402;2023-04-10T04:28:57;95400.09;;;7.43;93.51
13029;BME280;6581;42.662;23.402;2023-04-10T04:31:46;95398.03;;;7.36;93.25
13029;BME280;6581;42.662;23.402;2023-04-10T04:34:35;95406.28;;;7.35;93.25
13029;BME280;6581;42.662;23.402;2023-04-10T04:37:09;95399.69;;;7.41;95.26
13029;BME280;6581;42.662;23.402;2023-04-10T04:40:00;95398.81;;;7.37;97.77
13029;BME280;6581;42.662;23.402;2023-04-10T04:42:55;95397.38;;;7.39;98.89
13029;BME280;6581;42.662;23.402;2023-04-10T04:45:35;95404.38;;;7.47;98.16
13029;BME280;6581;42.662;23.402;2023-04-10T04:48:33;95404.38;;;7.47;99.48
13029;BME280;6581;42.662;23.402;2023-04-10T04:51:12;95404.66;;;7.58;99.44
13029;BME280;6581;42.662;23.402;2023-04-10T04:54:05;95408.31;;;7.53;99.67
13029;BME280;6581;42.662;23.402;2023-04-10T04:56:47;95413.91;;;7.52;99.57
13029;BME280;6581;42.662;23.402;2023-04-10T04:59:22;95412.34;;;7.63;98.93
13029;BME280;6581;42.662;23.402;2023-04-10T05:02:02;95422.44;;;7.61;99.54
13029;BME280;6581;42.662;23.402;2023-04-10T05:04:43;95412.34;;;7.63;99.17
13029;BME280;6581;42.662;23.402;2023-04-10T05:07:35;95420.88;;;7.72;98.98
13029;BME280;6581;42.662;23.402;2023-04-10T05:10:25;95416.69;;;7.71;99.99
13029;BME280;6581;42.662;23.402;2023-04-10T05:13:01;95416.38;;;7.73;100.00
13029;BME280;6581;42.662;23.402;2023-04-10T05:15:50;95424.91;;;7.82;99.77
13029;BME280;6581;42.662;23.402;2023-04-10T05:18:36;95421.59;;;7.85;99.21
13029;BME280;6581;42.662;23.402;2023-04-10T05:21:30;95421.22;;;7.98;99.32
13029;BME280;6581;42.662;23.402;2023-04-10T05:24:00;95417.31;;;8.08;98.15
13029;BME280;6581;42.662;23.402;2023-04-10T05:26:41;95421.28;;;7.86;95.12
13029;BME280;6581;42.662;23.402;2023-04-10T05:29:51;95418.25;;;8.00;93.80
13029;BME280;6581;42.662;23.402;2023-04-10T05:32:47;95413.59;;;7.81;94.51
13029;BME280;6581;42.662;23.402;2023-04-10T05:35:33;95415.06;;;7.94;95.12
13029;BME280;6581;42.662;23.402;2023-04-10T05:38:21;95416.69;;;7.99;94.94
13029;BME280;6581;42.662;23.402;2023-04-10T05:40:56;95416.63;;;8.11;92.72
13029;BME280;6581;42.662;23.402;2023-04-10T05:43:55;95420.56;;;8.29;91.03
13029;BME280;6581;42.662;23.402;2023-04-10T05:46:41;95429.69;;;8.48;89.23
13029;BME280;6581;42.662;23.402;2023-04-10T05:49:22;95429.25;;;8.61;88.20
13029;BME280;6581;42.662;23.402;2023-04-10T05:52:07;95425.25;;;8.67;86.77
13029;BME280;6581;42.662;23.402;2023-04-10T05:54:47;95430.09;;;8.65;84.67
13029;BME280;6581;42.662;23.402;2023-04-10T05:57:16;95427.19;;;8.55;84.58
13029;BME280;6581;42.662;23.402;2023-04-10T06:00:03;95432.22;;;8.60;84.24
13029;BME280;6581;42.662;23.402;2023-04-10T06:02:39;95428.56;;;8.64;84.80
13029;BME280;6581;42.662;23.402;2023-04-10T06:05:12;95433.69;;;8.88;84.72
13029;BME280;6581;42.662;23.402;2023-04-10T06:07:40;95435.13;;;9.02;83.57
13029;BME280;6581;42.662;23.402;2023-04-10T06:10:09;95432.16;;;9.22;83.93
13029;BME280;6581;42.662;23.402;2023-04-10T06:12:37;95436.00;;;9.25;83.45
13029;BME280;6581;42.662;23.402;2023-04-10T06:15:08;95432.19;;;9.57;81.06
13029;BME280;6581;42.662;23.402;2023-04-10T06:17:40;95435.13;;;9.71;80.77
13029;BME280;6581;42.662;23.402;2023-04-10T06:20:09;95432.31;;;9.64;78.24
13029;BME280;6581;42.662;23.402;2023-04-10T06:22:36;95435.09;;;9.91;77.29
13029;BME280;6581;42.662;23.402;2023-04-10T06:25:29;95436.69;;;10.14;76.56
13029;BME280;6581;42.662;23.402;2023-04-10T06:27:58;95432.88;;;10.12;76.07
13029;BME280;6581;42.662;23.402;2023-04-10T06:30:50;95431.19;;;10.23;75.30
13029;BME280;6581;42.662;23.402;2023-04-10T06:33:18;95433.44;;;10.21;76.01
13029;BME280;6581;42.662;23.402;2023-04-10T06:35:45;95436.88;;;10.44;73.90
13029;BME280;6581;42.662;23.402;2023-04-10T06:38:12;95434.25;;;10.44;73.35
13029;BME280;6581;42.662;23.402;2023-04-10T06:40:42;95438.41;;;10.45;72.26
13029;BME280;6581;42.662;23.402;2023-04-10T06:43:09;95446.94;;;10.35;72.45
13029;BME280;6581;42.662;23.402;2023-04-10T06:45:37;95444.03;;;10.21;72.30
13029;BME280;6581;42.662;23.402;2023-04-10T06:48:05;95451.53;;;10.19;73.00
13029;BME280;6581;42.662;23.402;2023-04-10T06:50:32;95440.09;;;10.34;72.74
13029;BME280;6581;42.662;23.402;2023-04-10T06:52:59;95447.06;;;10.42;71.86
13029;BME280;6581;42.662;23.402;2023-04-10T06:55:26;95449.41;;;10.47;71.97
13029;BME280;6581;42.662;23.402;2023-04-10T06:57:55;95451.72;;;10.49;71.23
13029;BME280;6581;42.662;23.402;2023-04-10T07:00:22;95451.78;;;10.52;71.33
13029;BME280;6581;42.662;23.402;2023-04-10T07:02:49;95448.34;;;10.52;70.96
13029;BME280;6581;42.662;23.402;2023-04-10T07:05:16;95450.66;;;10.53;69.52
13029;BME280;6581;42.662;23.402;2023-04-10T07:07:43;95456.81;;;10.38;70.56
13029;BME280;6581;42.662;23.402;2023-04-10T07:10:12;95454.94;;;10.39;71.28
13029;BME280;6581;42.662;23.402;2023-04-10T07:12:39;95457.66;;;10.42;71.16
13029;BME280;6581;42.662;23.402;2023-04-10T07:15:08;95452.66;;;10.18;69.92
13029;BME280;6581;42.662;23.402;2023-04-10T07:17:37;95453.56;;;10.06;72.70
13029;BME280;6581;42.662;23.402;2023-04-10T07:20:05;95454.03;;;10.12;72.95
13029;BME280;6581;42.662;23.402;2023-04-10T07:22:32;95457.09;;;10.33;71.70
13029;BME280;6581;42.662;23.402;2023-04-10T07:24:59;95458.63;;;10.15;73.09
13029;BME280;6581;42.662;23.402;2023-04-10T07:27:26;95457.47;;;9.93;71.73
13029;BME280;6581;42.662;23.402;2023-04-10T07:29:54;95463.44;;;9.90;73.28
13029;BME280;6581;42.662;23.402;2023-04-10T07:32:23;95457.47;;;9.93;73.37
13029;BME280;6581;42.662;23.402;2023-04-10T07:34:50;95454.59;;;10.02;72.82
13029;BME280;6581;42.662;23.402;2023-04-10T07:37:17;95452.44;;;10.07;73.25
13029;BME280;6581;42.662;23.402;2023-04-10T07:39:45;95457.88;;;10.34;73.57
13029;BME280;6581;42.662;23.402;2023-04-10T07:42:12;95460.78;;;10.71;70.91
13029;BME280;6581;42.662;23.402;2023-04-10T07:44:40;95462.09;;;10.80;70.63
13029;BME280;6581;42.662;23.402;2023-04-10T07:47:07;95457.25;;;10.86;69.74
13029;BME280;6581;42.662;23.402;2023-04-10T07:49:35;95456.00;;;11.29;68.15
13029;BME280;6581;42.662;23.402;2023-04-10T07:52:02;95450.09;;;11.39;66.50
13029;BME280;6581;42.662;23.402;2023-04-10T07:54:30;95452.22;;;11.56;66.46
13029;BME280;6581;42.662;23.402;2023-04-10T07:56:57;95462.19;;;11.63;65.31
13029;BME280;6581;42.662;23.402;2023-04-10T07:59:26;95457.97;;;11.32;65.15
13029;BME280;6581;42.662;23.402;2023-04-10T08:01:53;95447.06;;;11.14;68.09
13029;BME280;6581;42.662;23.402;2023-04-10T08:04:20;95447.72;;;11.04;67.78
13029;BME280;6581;42.662;23.402;2023-04-10T08:06:48;95446.34;;;10.91;67.88
13029;BME280;6581;42.662;23.402;2023-04-10T08:09:15;95449.94;;;11.02;68.50
13029;BME280;6581;42.662;23.402;2023-04-10T08:11:42;95449.03;;;11.17;68.14
13029;BME280;6581;42.662;23.402;2023-04-10T08:14:09;95451.25;;;11.15;67.90
13029;BME280;6581;42.662;23.402;2023-04-10T08:16:38;95445.94;;;11.41;67.46
13029;BME280;6581;42.662;23.402;2023-04-10T08:19:05;95448.88;;;11.59;66.86
13029;BME280;6581;42.662;23.402;2023-04-10T08:21:32;95450.34;;;11.56;65.68
13029;BME280;6581;42.662;23.402;2023-04-10T08:24:01;95448.03;;;11.55;65.95
13029;BME280;6581;42.662;23.402;2023-04-10T08:26:29;95457.09;;;11.77;64.92
13029;BME280;6581;42.662;23.402;2023-04-10T08:28:58;95453.19;;;11.71;65.66
13029;BME280;6581;42.662;23.402;2023-04-10T08:31:26;95449.25;;;11.61;65.74
13029;BME280;6581;42.662;23.402;2023-04-10T08:33:54;95447.56;;;11.72;65.45
13029;BME280;6581;42.662;23.402;2023-04-10T08:36:21;95460.22;;;11.86;63.91
13029;BME280;6581;42.662;23.402;2023-04-10T08:38:48;95439.91;;;11.71;64.81
13029;BME280;6581;42.662;23.402;2023-04-10T08:41:18;95450.25;;;11.76;66.20
13029;BME280;6581;42.662;23.402;2023-04-10T08:43:45;95444.63;;;11.81;65.14
13029;BME280;6581;42.662;23.402;2023-04-10T08:46:14;95444.31;;;11.60;65.42
13029;BME280;6581;42.662;23.402;2023-04-10T08:48:45;95443.81;;;11.77;66.24
13029;BME280;6581;42.662;23.402;2023-04-10T08:51:15;95440.59;;;11.94;65.27
13029;BME280;6581;42.662;23.402;2023-04-10T08:53:43;95451.84;;;11.84;63.01
13029;BME280;6581;42.662;23.402;2023-04-10T08:56:12;95450.59;;;11.48;61.87
13029;BME280;6581;42.662;23.402;2023-04-10T08:58:41;95447.50;;;11.42;64.09
13029;BME280;6581;42.662;23.402;2023-04-10T09:01:09;95437.03;;;11.53;63.92
13029;BME280;6581;42.662;23.402;2023-04-10T09:03:37;95437.50;;;11.32;62.66
13029;BME280;6581;42.662;23.402;2023-04-10T09:06:05;95438.41;;;11.43;62.14
13029;BME280;6581;42.662;23.402;2023-04-10T09:08:32;95436.94;;;11.20;61.14
13029;BME280;6581;42.662;23.402;2023-04-10T09:10:59;95436.47;;;11.14;63.19
13029;BME280;6581;42.662;23.402;2023-04-10T09:13:37;95427.78;;;11.14;63.97
13029;BME280;6581;42.662;23.402;2023-04-10T09:16:08;95437.16;;;11.34;65.63
13029;BME280;6581;42.662;23.402;2023-04-10T09:18:46;95428.91;;;11.42;64.88
13029;BME280;6581;42.662;23.402;2023-04-10T09:21:15;95426.50;;;11.60;63.53
13029;BME280;6581;42.662;23.402;2023-04-10T09:23:43;95423.53;;;11.65;62.81
13029;BME280;6581;42.662;23.402;2023-04-10T09:26:28;95426.00;;;11.51;62.40
13029;BME280;6581;42.662;23.402;2023-04-10T09:29:00;95425.50;;;11.42;63.69
13029;BME280;6581;42.662;23.402;2023-04-10T09:31:34;95421.28;;;11.37;64.33
13029;BME280;6581;42.662;23.402;2023-04-10T09:34:09;95424.72;;;11.41;63.67
13029;BME280;6581;42.662;23.402;2023-04-10T09:36:37;95420.38;;;11.56;64.04
13029;BME280;6581;42.662;23.402;2023-04-10T09:39:06;95427.00;;;11.39;65.05
13029;BME280;6581;42.662;23.402;2023-04-10T09:41:34;95414.31;;;11.26;65.49
13029;BME280;6581;42.662;23.402;2023-04-10T09:44:05;95411.31;;;11.57;64.88
13029;BME280;6581;42.662;23.402;2023-04-10T09:46:34;95416.13;;;11.78;64.71
13029;BME280;6581;42.662;23.402;2023-04-10T09:49:01;95416.66;;;11.87;61.80
13029;BME280;6581;42.662;23.402;2023-04-10T09:51:30;95417.47;;;11.65;59.42
13029;BME280;6581;42.662;23.402;2023-04-10T09:53:58;95415.63;;;11.39;59.54
13029;BME280;6581;42.662;23.402;2023-04-10T09:56:26;95410.72;;;11.41;60.50
13029;BME280;6581;42.662;23.402;2023-04-10T09:58:56;95411.19;;;11.76;61.55
13029;BME280;6581;42.662;23.402;2023-04-10T10:01:25;95405.97;;;11.53;58.22
13029;BME280;6581;42.662;23.402;2023-04-10T10:03:55;95406.44;;;11.33;59.57
13029;BME280;6581;42.662;23.402;2023-04-10T10:06:24;95411.16;;;11.46;59.22
13029;BME280;6581;42.662;23.402;2023-04-10T10:08:52;95404.28;;;11.72;59.86
13029;BME280;6581;42.662;23.402;2023-04-10T10:11:21;95404.38;;;11.75;58.16
13029;BME280;6581;42.662;23.402;2023-04-10T10:13:50;95394.38;;;11.98;59.37
13029;BME280;6581;42.662;23.402;2023-04-10T10:16:20;95397.47;;;12.01;56.50
13029;BME280;6581;42.662;23.402;2023-04-10T10:18:54;95396.72;;;12.04;57.80
13029;BME280;6581;42.662;23.402;2023-04-10T10:21:25;95391.69;;;12.32;56.49
13029;BME280;6581;42.662;23.402;2023-04-10T10:23:55;95385.03;;;12.52;55.42
13029;BME280;6581;42.662;23.402;2023-04-10T10:26:24;95388.50;;;12.56;54.56
13029;BME280;6581;42.662;23.402;2023-04-10T10:28:53;95368.66;;;12.47;57.66
13029;BME280;6581;42.662;23.402;2023-04-10T10:31:21;95379.81;;;12.59;56.45
13029;BME280;6581;42.662;23.402;2023-04-10T10:33:51;95378.75;;;12.71;54.23
13029;BME280;6581;42.662;23.402;2023-04-10T10:36:21;95369.75;;;12.86;53.22
13029;BME280;6581;42.662;23.402;2023-04-10T10:38:52;95360.25;;;12.88;54.02
13029;BME280;6581;42.662;23.402;2023-04-10T10:41:27;95359.13;;;12.89;53.54
13029;BME280;6581;42.662;23.402;2023-04-10T10:44:05;95354.16;;;12.84;53.16
13029;BME280;6581;42.662;23.402;2023-04-10T10:46:35;95356.13;;;12.91;56.43
13029;BME280;6581;42.662;23.402;2023-04-10T10:49:04;95350.06;;;12.94;53.36
13029;BME280;6581;42.662;23.402;2023-04-10T10:51:46;95346.81;;;13.15;54.30
13029;BME280;6581;42.662;23.402;2023-04-10T10:54:32;95356.03;;;13.39;52.49
13029;BME280;6581;42.662;23.402;2023-04-10T10:57:00;95347.66;;;13.37;51.51
13029;BME280;6581;42.662;23.402;2023-04-10T10:59:52;95348.81;;;13.39;49.45
13029;BME280;6581;42.662;23.402;2023-04-10T11:02:20;95340.84;;;13.43;49.51
13029;BME280;6581;42.662;23.402;2023-04-10T11:04:48;95337.38;;;13.28;49.50
13029;BME280;6581;42.662;23.402;2023-04-10T11:07:16;95321.41;;;13.28;49.37
13029;BME280;6581;42.662;23.402;2023-04-10T11:09:45;95325.88;;;13.13;49.58
13029;BME280;6581;42.662;23.402;2023-04-10T11:12:14;95318.69;;;13.17;48.97
13029;BME280;6581;42.662;23.402;2023-04-10T11:14:42;95322.41;;;13.09;48.40
13029;BME280;6581;42.662;23.402;2023-04-10T11:17:11;95316.00;;;13.14;47.89
13029;BME280;6581;42.662;23.402;2023-04-10T11:19:57;95320.19;;;13.15;47.17
13029;BME280;6581;42.662;23.402;2023-04-10T11:22:27;95334.00;;;12.80;46.47
13029;BME280;6581;42.662;23.402;2023-04-10T11:24:59;95316.47;;;12.24;53.24
13029;BME280;6581;42.662;23.402;2023-04-10T11:27:38;95311.28;;;11.91;55.98
13029;BME280;6581;42.662;23.402;2023-04-10T11:30:24;95320.22;;;11.79;58.07
13029;BME280;6581;42.662;23.402;2023-04-10T11:32:52;95309.38;;;11.91;56.68
13029;BME280;6581;42.662;23.402;2023-04-10T11:35:20;95305.63;;;11.96;55.67
13029;BME280;6581;42.662;23.402;2023-04-10T11:37:48;95302.88;;;11.85;55.42
13029;BME280;6581;42.662;23.402;2023-04-10T11:40:16;95309.00;;;11.93;56.58
13029;BME280;6581;42.662;23.402;2023-04-10T11:42:43;95324.88;;;11.86;55.61
13029;BME280;6581;42.662;23.402;2023-04-10T11:45:23;95318.03;;;11.85;57.00
13029;BME280;6581;42.662;23.402;2023-04-10T11:47:51;95299.44;;;11.85;55.94
13029;BME280;6581;42.662;23.402;2023-04-10T11:50:18;95315.03;;;11.86;55.85
13029;BME280;6581;42.662;23.402;2023-04-10T11:52:46;95314.91;;;11.76;54.83
13029;BME280;6581;42.662;23.402;2023-04-10T11:55:15;95308.41;;;11.73;53.74
13029;BME280;6581;42.662;23.402;2023-04-10T11:57:44;95304.84;;;11.59;54.20
13029;BME280;6581;42.662;23.402;2023-04-10T12:00:21;95303.22;;;11.50;55.96
13029;BME280;6581;42.662;23.402;2023-04-10T12:02:50;95312.97;;;11.43;56.26
13029;BME280;6581;42.662;23.402;2023-04-10T12:05:18;95308.28;;;11.29;57.91
13029;BME280;6581;42.662;23.402;2023-04-10T12:07:47;95305.00;;;11.09;60.88
13029;BME280;6581;42.662;23.402;2023-04-10T12:10:47;95307.28;;;10.81;65.24
13029;BME280;6581;42.662;23.402;2023-04-10T12:13:23;95308.03;;;10.55;70.19
13029;BME280;6581;42.662;23.402;2023-04-10T12:16:16;95324.97;;;10.05;78.11
13029;BME280;6581;42.662;23.402;2023-04-10T12:18:43;95324.06;;;9.75;81.83
13029;BME280;6581;42.662;23.402;2023-04-10T12:21:10;95319.00;;;9.66;83.33
13029;BME280;6581;42.662;23.402;2023-04-10T12:23:38;95318.47;;;9.57;83.81
13029;BME280;6581;42.662;23.402;2023-04-10T12:26:12;95326.03;;;9.59;85.65
13029;BME280;6581;42.662;23.402;2023-04-10T12:28:40;95316.16;;;9.37;89.88
13029;BME280;6581;42.662;23.402;2023-04-10T12:31:08;95328.75;;;9.24;92.03
13029;BME280;6581;42.662;23.402;2023-04-10T12:33:35;95306.63;;;9.13;91.13
13029;BME280;6581;42.662;23.402;2023-04-10T12:36:02;95316.63;;;9.23;91.37
13029;BME280;6581;42.662;23.402;2023-04-10T12:38:40;95297.25;;;9.34;89.13
13029;BME280;6581;42.662;23.402;2023-04-10T12:41:10;95308.72;;;9.61;80.66
13029;BME280;6581;42.662;23.402;2023-04-10T12:43:38;95304.91;;;9.82;73.10
13029;BME280;6581;42.662;23.402;2023-04-10T12:46:29;95299.84;;;9.96;72.86
13029;BME280;6581;42.662;23.402;2023-04-10T12:49:07;95295.81;;;9.79;74.58
13029;BME280;6581;42.662;23.402;2023-04-10T12:51:45;95287.38;;;9.73;76.95
13029;BME280;6581;42.662;23.402;2023-04-10T12:54:27;95293.97;;;9.83;77.29
13029;BME280;6581;42.662;23.402;2023-04-10T12:56:56;95277.00;;;9.84;80.94
13029;BME280;6581;42.662;23.402;2023-04-10T12:59:23;95294.81;;;10.10;77.73
13029;BME280;6581;42.662;23.402;2023-04-10T13:01:51;95275.47;;;10.06;75.56
13029;BME280;6581;42.662;23.402;2023-04-10T13:04:18;95282.59;;;10.25;75.22
13029;BME280;6581;42.662;23.402;2023-04-10T13:06:46;95275.88;;;10.31;73.71
13029;BME280;6581;42.662;23.402;2023-04-10T13:09:14;95279.88;;;10.44;74.71
13029;BME280;6581;42.662;23.402;2023-04-10T13:11:42;95269.75;;;10.49;77.97
13029;BME280;6581;42.662;23.402;2023-04-10T13:14:10;95269.25;;;10.70;75.89
13029;BME280;6581;42.662;23.402;2023-04-10T13:16:37;95256.66;;;10.90;75.78
13029;BME280;6581;42.662;23.402;2023-04-10T13:19:04;95266.56;;;10.96;72.29
13029;BME280;6581;42.662;23.402;2023-04-10T13:21:32;95255.88;;;11.19;71.84
13029;BME280;6581;42.662;23.402;2023-04-10T13:23:59;95255.94;;;11.23;71.14
13029;BME280;6581;42.662;23.402;2023-04-10T13:26:26;95253.47;;;11.40;70.80
13029;BME280;6581;42.662;23.402;2023-04-10T13:28:53;95246.28;;;11.78;68.92
13029;BME280;6581;42.662;23.402;2023-04-10T13:31:22;95254.84;;;12.01;66.97
13029;BME280;6581;42.662;23.402;2023-04-10T13:33:49;95254.25;;;12.22;68.42